sensor_id;sensor_type;location;lat;lon;timestamp;pressure;altitude;pressure_sealevel;temperature;humidity
18858;BME280;9558;50.178;8.370;2023-04-05T00:00:28;98880.66;;;0.41;79.62
18858;BME280;9558;50.178;8.370;2023-04-05T00:03:15;98881.72;;;0.37;80.47
18858;BME280;9558;50.178;8.370;2023-04-05T00:06:03;98877.56;;;0.36;80.76
18858;BME280;9558;50.178;8.370;2023-04-05T00:08:50;98886.22;;;0.33;80.34
18858;BME280;9558;50.178;8.370;2023-04-05T00:11:41;98887.22;;;0.31;80.70
18858;BME280;9558;50.178;8.370;2023-04-05T00:14:28;98878.66;;;0.32;82.07
18858;BME280;9558;50.178;8.370;2023-04-05T00:17:15;98879.47;;;0.32;81.56
18858;BME280;9558;50.178;8.370;2023-04-05T00:20:02;98887.00;;;0.34;81.36
18858;BME280;9558;50.178;8.370;2023-04-05T00:22:52;98884.56;;;0.32;81.69
18858;BME280;9558;50.178;8.370;2023-04-05T00:25:39;98874.38;;;0.32;81.20
18858;BME280;9558;50.178;8.370;2023-04-05T00:28:27;98883.75;;;0.32;81.66
18858;BME280;9558;50.178;8.370;2023-04-05T00:31:13;98879.38;;;0.34;82.02
18858;BME280;9558;50.178;8.370;2023-04-05T00:34:00;98880.22;;;0.34;81.84
18858;BME280;9558;50.178;8.370;2023-04-05T00:36:47;98882.03;;;0.32;82.79
18858;BME280;9558;50.178;8.370;2023-04-05T00:39:34;98880.38;;;0.31;82.02
18858;BME280;9558;50.178;8.370;2023-04-05T00:42:21;98876.31;;;0.29;83.20
18858;BME280;9558;50.178;8.370;2023-04-05T00:45:09;98874.56;;;0.29;82.25
18858;BME280;9558;50.178;8.370;2023-04-05T00:47:56;98867.03;;;0.28;82.09
18858;BME280;9558;50.178;8.370;2023-04-05T00:50:43;98860.28;;;0.27;82.37
18858;BME280;9558;50.178;8.370;2023-04-05T00:53:30;98864.88;;;0.22;82.21
18858;BME280;9558;50.178;8.370;2023-04-05T00:56:17;98865.94;;;0.17;82.81
18858;BME280;9558;50.178;8.370;2023-04-05T00:59:06;98864.50;;;0.13;82.53
18858;BME280;9558;50.178;8.370;2023-04-05T01:01:59;98863.03;;;0.09;82.57
18858;BME280;9558;50.178;8.370;2023-04-05T01:04:54;98863.22;;;0.06;82.42
18858;BME280;9558;50.178;8.370;2023-04-05T01:07:50;98853.22;;;0.03;83.11
18858;BME280;9558;50.178;8.370;2023-04-05T01:10:49;98851.13;;;-0.05;83.46
18858;BME280;9558;50.178;8.370;2023-04-05T01:13:36;98848.06;;;-0.10;82.92
18858;BME280;9558;50.178;8.370;2023-04-05T01:16:23;98845.75;;;-0.14;82.80
18858;BME280;9558;50.178;8.370;2023-04-05T01:19:12;98845.13;;;-0.18;83.18
18858;BME280;9558;50.178;8.370;2023-04-05T01:22:13;98835.41;;;-0.26;84.76
18858;BME280;9558;50.178;8.370;2023-04-05T01:25:27;98830.50;;;-0.29;83.55
18858;BME280;9558;50.178;8.370;2023-04-05T01:28:34;98833.22;;;-0.32;83.91
18858;BME280;9558;50.178;8.370;2023-04-05T01:31:31;98833.69;;;-0.40;86.98
18858;BME280;9558;50.178;8.370;2023-04-05T01:34:26;98826.03;;;-0.40;83.54
18858;BME280;9558;50.178;8.370;2023-04-05T01:37:18;98833.88;;;-0.43;84.76
18858;BME280;9558;50.178;8.370;2023-04-05T01:40:07;98827.22;;;-0.45;84.17
18858;BME280;9558;50.178;8.370;2023-04-05T01:42:54;98825.56;;;-0.46;84.76
18858;BME280;9558;50.178;8.370;2023-04-05T01:45:41;98822.41;;;-0.50;84.64
18858;BME280;9558;50.178;8.370;2023-04-05T01:48:29;98820.84;;;-0.53;85.27
18858;BME280;9558;50.178;8.370;2023-04-05T01:51:15;98821.03;;;-0.56;84.90
18858;BME280;9558;50.178;8.370;2023-04-05T01:54:02;98811.03;;;-0.59;84.79
18858;BME280;9558;50.178;8.370;2023-04-05T01:56:49;98813.56;;;-0.59;86.38
18858;BME280;9558;50.178;8.370;2023-04-05T01:59:36;98807.75;;;-0.61;84.93
18858;BME280;9558;50.178;8.370;2023-04-05T02:02:22;98809.59;;;-0.63;85.66
18858;BME280;9558;50.178;8.370;2023-04-05T02:05:10;98807.38;;;-0.69;86.02
18858;BME280;9558;50.178;8.370;2023-04-05T02:07:57;98808.28;;;-0.70;86.06
18858;BME280;9558;50.178;8.370;2023-04-05T02:10:44;98806.75;;;-0.73;85.82
18858;BME280;9558;50.178;8.370;2023-04-05T02:13:31;98812.06;;;-0.77;85.90
18858;BME280;9558;50.178;8.370;2023-04-05T02:16:17;98814.88;;;-0.82;87.28
18858;BME280;9558;50.178;8.370;2023-04-05T02:19:04;98814.88;;;-0.82;86.64
18858;BME280;9558;50.178;8.370;2023-04-05T02:21:52;98813.25;;;-0.83;86.41
18858;BME280;9558;50.178;8.370;2023-04-05T02:24:39;98809.00;;;-0.82;86.46
18858;BME280;9558;50.178;8.370;2023-04-05T02:27:26;98811.81;;;-0.87;90.49
18858;BME280;9558;50.178;8.370;2023-04-05T02:30:13;98799.09;;;-0.87;86.64
18858;BME280;9558;50.178;8.370;2023-04-05T02:33:00;98798.34;;;-0.89;90.26
18858;BME280;9558;50.178;8.370;2023-04-05T02:35:47;98800.97;;;-0.91;87.36
18858;BME280;9558;50.178;8.370;2023-04-05T02:38:36;98797.81;;;-0.94;86.60
18858;BME280;9558;50.178;8.370;2023-04-05T02:41:22;98801.25;;;-0.95;87.72
18858;BME280;9558;50.178;8.370;2023-04-05T02:44:11;98796.25;;;-0.97;87.21
18858;BME280;9558;50.178;8.370;2023-04-05T02:46:58;98795.41;;;-0.97;88.49
18858;BME280;9558;50.178;8.370;2023-04-05T02:49:44;98792.97;;;-0.99;87.36
18858;BME280;9558;50.178;8.370;2023-04-05T02:52:31;98793.13;;;-1.02;86.82
18858;BME280;9558;50.178;8.370;2023-04-05T02:55:19;98794.03;;;-1.03;87.61
18858;BME280;9558;50.178;8.370;2023-04-05T02:58:06;98788.41;;;-1.08;86.95
18858;BME280;9558;50.178;8.370;2023-04-05T03:00:53;98796.94;;;-1.09;86.54
18858;BME280;9558;50.178;8.370;2023-04-05T03:03:40;98798.00;;;-1.13;88.83
18858;BME280;9558;50.178;8.370;2023-04-05T03:06:27;98794.66;;;-1.14;86.92
18858;BME280;9558;50.178;8.370;2023-04-05T03:09:16;98792.38;;;-1.18;88.05
18858;BME280;9558;50.178;8.370;2023-04-05T03:12:04;98797.47;;;-1.18;88.27
18858;BME280;9558;50.178;8.370;2023-04-05T03:14:52;98790.72;;;-1.19;88.03
18858;BME280;9558;50.178;8.370;2023-04-05T03:17:38;98789.97;;;-1.22;87.64
18858;BME280;9558;50.178;8.370;2023-04-05T03:20:28;98786.63;;;-1.22;87.67
18858;BME280;9558;50.178;8.370;2023-04-05T03:23:15;98790.16;;;-1.25;87.74
18858;BME280;9558;50.178;8.370;2023-04-05T03:26:02;98786.81;;;-1.25;88.17
18858;BME280;9558;50.178;8.370;2023-04-05T03:28:51;98793.03;;;-1.31;88.23
18858;BME280;9558;50.178;8.370;2023-04-05T03:31:37;98783.06;;;-1.34;88.36
18858;BME280;9558;50.178;8.370;2023-04-05T03:34:24;98785.59;;;-1.34;87.86
18858;BME280;9558;50.178;8.370;2023-04-05T03:37:13;98782.41;;;-1.37;87.93
18858;BME280;9558;50.178;8.370;2023-04-05T03:40:00;98785.78;;;-1.37;88.55
18858;BME280;9558;50.178;8.370;2023-04-05T03:42:46;98768.97;;;-1.40;88.92
18858;BME280;9558;50.178;8.370;2023-04-05T03:45:34;98769.88;;;-1.41;88.71
18858;BME280;9558;50.178;8.370;2023-04-05T03:48:21;98775.03;;;-1.42;88.37
18858;BME280;9558;50.178;8.370;2023-04-05T03:51:08;98763.41;;;-1.46;87.97
18858;BME280;9558;50.178;8.370;2023-04-05T03:53:55;98770.47;;;-1.51;90.57
18858;BME280;9558;50.178;8.370;2023-04-05T03:56:42;98769.72;;;-1.53;90.81
18858;BME280;9558;50.178;8.370;2023-04-05T03:59:28;98769.72;;;-1.53;88.71
18858;BME280;9558;50.178;8.370;2023-04-05T04:02:17;98764.09;;;-1.59;90.47
18858;BME280;9558;50.178;8.370;2023-04-05T04:05:04;98768.34;;;-1.59;88.82
18858;BME280;9558;50.178;8.370;2023-04-05T04:07:51;98767.63;;;-1.61;88.46
18858;BME280;9558;50.178;8.370;2023-04-05T04:10:38;98770.25;;;-1.63;88.46
18858;BME280;9558;50.178;8.370;2023-04-05T04:13:25;98771.13;;;-1.64;88.71
18858;BME280;9558;50.178;8.370;2023-04-05T04:16:12;98771.31;;;-1.67;90.13
18858;BME280;9558;50.178;8.370;2023-04-05T04:19:00;98770.31;;;-1.64;89.25
18858;BME280;9558;50.178;8.370;2023-04-05T04:21:46;98779.81;;;-1.68;89.26
18858;BME280;9558;50.178;8.370;2023-04-05T04:24:36;98776.56;;;-1.70;88.60
18858;BME280;9558;50.178;8.370;2023-04-05T04:27:25;98771.63;;;-1.73;90.59
18858;BME280;9558;50.178;8.370;2023-04-05T04:30:14;98772.53;;;-1.74;90.04
18858;BME280;9558;50.178;8.370;2023-04-05T04:33:01;98769.16;;;-1.75;89.11
18858;BME280;9558;50.178;8.370;2023-04-05T04:35:51;98765.81;;;-1.75;89.27
18858;BME280;9558;50.178;8.370;2023-04-05T04:38:39;98761.81;;;-1.79;89.08
18858;BME280;9558;50.178;8.370;2023-04-05T04:41:28;98764.34;;;-1.79;89.72
18858;BME280;9558;50.178;8.370;2023-04-05T04:44:14;98768.69;;;-1.81;89.34
18858;BME280;9558;50.178;8.370;2023-04-05T04:47:01;98767.13;;;-1.84;90.10
18858;BME280;9558;50.178;8.370;2023-04-05T04:49:48;98755.50;;;-1.88;89.37
18858;BME280;9558;50.178;8.370;2023-04-05T04:52:37;98764.09;;;-1.91;88.69
18858;BME280;9558;50.178;8.370;2023-04-05T04:55:23;98759.03;;;-1.91;89.31
18858;BME280;9558;50.178;8.370;2023-04-05T04:58:12;98762.44;;;-1.92;89.08
18858;BME280;9558;50.178;8.370;2023-04-05T05:00:59;98764.34;;;-1.95;90.14
18858;BME280;9558;50.178;8.370;2023-04-05T05:03:45;98772.75;;;-1.95;89.58
18858;BME280;9558;50.178;8.370;2023-04-05T05:06:33;98775.31;;;-1.95;91.69
18858;BME280;9558;50.178;8.370;2023-04-05T05:09:21;98774.41;;;-1.94;90.87
18858;BME280;9558;50.178;8.370;2023-04-05T05:12:08;98776.06;;;-1.93;90.23
18858;BME280;9558;50.178;8.370;2023-04-05T05:14:54;98776.69;;;-1.89;90.43
18858;BME280;9558;50.178;8.370;2023-04-05T05:17:41;98770.06;;;-1.92;90.67
18858;BME280;9558;50.178;8.370;2023-04-05T05:20:29;98770.81;;;-1.89;90.82
18858;BME280;9558;50.178;8.370;2023-04-05T05:23:16;98775.88;;;-1.89;91.12
18858;BME280;9558;50.178;8.370;2023-04-05T05:26:07;98779.16;;;-1.87;90.36
18858;BME280;9558;50.178;8.370;2023-04-05T05:28:53;98778.97;;;-1.84;91.18
18858;BME280;9558;50.178;8.370;2023-04-05T05:31:40;98767.84;;;-1.82;90.43
18858;BME280;9558;50.178;8.370;2023-04-05T05:34:27;98782.91;;;-1.79;90.44
18858;BME280;9558;50.178;8.370;2023-04-05T05:37:13;98779.66;;;-1.81;90.90
18858;BME280;9558;50.178;8.370;2023-04-05T05:40:01;98770.16;;;-1.77;91.90
18858;BME280;9558;50.178;8.370;2023-04-05T05:42:50;98765.09;;;-1.77;90.23
18858;BME280;9558;50.178;8.370;2023-04-05T05:45:37;98773.44;;;-1.75;89.77
18858;BME280;9558;50.178;8.370;2023-04-05T05:48:23;98772.63;;;-1.76;90.48
18858;BME280;9558;50.178;8.370;2023-04-05T05:51:10;98777.53;;;-1.72;91.79
18858;BME280;9558;50.178;8.370;2023-04-05T05:53:57;98769.03;;;-1.71;90.08
18858;BME280;9558;50.178;8.370;2023-04-05T05:56:44;98771.31;;;-1.67;90.05
18858;BME280;9558;50.178;8.370;2023-04-05T05:59:32;98778.84;;;-1.65;91.19
18858;BME280;9558;50.178;8.370;2023-04-05T06:02:18;98778.59;;;-1.61;90.44
18858;BME280;9558;50.178;8.370;2023-04-05T06:05:06;98781.94;;;-1.60;91.61
18858;BME280;9558;50.178;8.370;2023-04-05T06:07:53;98779.97;;;-1.55;90.20
18858;BME280;9558;50.178;8.370;2023-04-05T06:10:40;98777.19;;;-1.50;92.39
18858;BME280;9558;50.178;8.370;2023-04-05T06:13:26;98779.47;;;-1.46;91.17
18858;BME280;9558;50.178;8.370;2023-04-05T06:16:15;98781.75;;;-1.41;93.04
18858;BME280;9558;50.178;8.370;2023-04-05T06:19:01;98780.59;;;-1.35;90.25
18858;BME280;9558;50.178;8.370;2023-04-05T06:21:48;98780.34;;;-1.31;90.19
18858;BME280;9558;50.178;8.370;2023-04-05T06:24:35;98782.72;;;-1.28;89.68
18858;BME280;9558;50.178;8.370;2023-04-05T06:27:22;98781.66;;;-1.24;90.88
18858;BME280;9558;50.178;8.370;2023-04-05T06:30:09;98783.84;;;-1.17;91.62
18858;BME280;9558;50.178;8.370;2023-04-05T06:32:57;98771.03;;;-1.16;92.35
18858;BME280;9558;50.178;8.370;2023-04-05T06:35:45;98778.25;;;-1.08;92.48
18858;BME280;9558;50.178;8.370;2023-04-05T06:38:32;98774.28;;;-0.98;91.92
18858;BME280;9558;50.178;8.370;2023-04-05T06:41:18;98773.59;;;-0.85;90.98
18858;BME280;9558;50.178;8.370;2023-04-05T06:44:05;98777.97;;;-0.59;90.99
18858;BME280;9558;50.178;8.370;2023-04-05T06:46:52;98781.81;;;-0.08;90.65
18858;BME280;9558;50.178;8.370;2023-04-05T06:49:40;98780.59;;;0.54;88.07
18858;BME280;9558;50.178;8.370;2023-04-05T06:52:27;98775.97;;;1.26;85.81
18858;BME280;9558;50.178;8.370;2023-04-05T06:55:14;98774.81;;;1.95;80.22
18858;BME280;9558;50.178;8.370;2023-04-05T06:58:01;98781.81;;;2.89;80.56
18858;BME280;9558;50.178;8.370;2023-04-05T07:00:48;98788.69;;;3.92;78.39
18858;BME280;9558;50.178;8.370;2023-04-05T07:03:35;98784.69;;;4.98;72.77
18858;BME280;9558;50.178;8.370;2023-04-05T07:06:23;98782.41;;;5.99;67.37
18858;BME280;9558;50.178;8.370;2023-04-05T07:09:09;98783.47;;;6.96;62.33
18858;BME280;9558;50.178;8.370;2023-04-05T07:11:56;98787.59;;;7.84;56.16
18858;BME280;9558;50.178;8.370;2023-04-05T07:14:43;98778.84;;;8.86;60.68
18858;BME280;9558;50.178;8.370;2023-04-05T07:17:30;98777.50;;;9.79;58.27
18858;BME280;9558;50.178;8.370;2023-04-05T07:20:16;98772.59;;;10.69;56.26
18858;BME280;9558;50.178;8.370;2023-04-05T07:23:05;98778.00;;;11.57;55.78
18858;BME280;9558;50.178;8.370;2023-04-05T07:25:51;98780.63;;;12.36;53.44
18858;BME280;9558;50.178;8.370;2023-04-05T07:28:38;98767.94;;;13.03;48.39
18858;BME280;9558;50.178;8.370;2023-04-05T07:31:25;98774.75;;;13.72;48.04
18858;BME280;9558;50.178;8.370;2023-04-05T07:34:12;98770.47;;;14.30;46.18
18858;BME280;9558;50.178;8.370;2023-04-05T07:36:59;98768.38;;;14.84;44.49
18858;BME280;9558;50.178;8.370;2023-04-05T07:39:47;98778.84;;;15.41;41.99
18858;BME280;9558;50.178;8.370;2023-04-05T07:42:34;98778.97;;;16.02;41.12
18858;BME280;9558;50.178;8.370;2023-04-05T07:45:21;98777.28;;;16.50;38.22
18858;BME280;9558;50.178;8.370;2023-04-05T07:48:08;98779.16;;;17.09;38.52
18858;BME280;9558;50.178;8.370;2023-04-05T07:50:54;98780.88;;;17.56;38.04
18858;BME280;9558;50.178;8.370;2023-04-05T07:53:41;98783.78;;;18.06;36.31
18858;BME280;9558;50.178;8.370;2023-04-05T07:56:30;98780.53;;;18.50;34.31
18858;BME280;9558;50.178;8.370;2023-04-05T07:59:17;98782.66;;;18.91;34.25
18858;BME280;9558;50.178;8.370;2023-04-05T08:02:03;98781.72;;;19.11;33.41
18858;BME280;9558;50.178;8.370;2023-04-05T08:04:50;98781.88;;;19.34;32.40
18858;BME280;9558;50.178;8.370;2023-04-05T08:07:37;98782.84;;;19.59;31.93
18858;BME280;9558;50.178;8.370;2023-04-05T08:10:24;98788.63;;;19.86;31.36
18858;BME280;9558;50.178;8.370;2023-04-05T08:13:12;98789.09;;;20.13;30.90
18858;BME280;9558;50.178;8.370;2023-04-05T08:16:00;98786.72;;;20.42;30.64
18858;BME280;9558;50.178;8.370;2023-04-05T08:18:47;98774.84;;;20.51;30.34
18858;BME280;9558;50.178;8.370;2023-04-05T08:21:34;98776.00;;;20.55;28.13
18858;BME280;9558;50.178;8.370;2023-04-05T08:24:21;98774.28;;;20.49;26.98
18858;BME280;9558;50.178;8.370;2023-04-05T08:27:07;98776.56;;;20.58;28.64
18858;BME280;9558;50.178;8.370;2023-04-05T08:29:55;98774.94;;;20.75;28.60
18858;BME280;9558;50.178;8.370;2023-04-05T08:32:42;98773.22;;;20.93;27.71
18858;BME280;9558;50.178;8.370;2023-04-05T08:35:29;98771.41;;;21.05;27.29
18858;BME280;9558;50.178;8.370;2023-04-05T08:38:16;98767.16;;;21.16;26.85
18858;BME280;9558;50.178;8.370;2023-04-05T08:41:06;98760.75;;;21.35;26.66
18858;BME280;9558;50.178;8.370;2023-04-05T08:43:59;98766.81;;;21.36;26.98
18858;BME280;9558;50.178;8.370;2023-04-05T08:46:49;98774.03;;;21.29;24.98
18858;BME280;9558;50.178;8.370;2023-04-05T08:49:36;98765.56;;;21.03;25.94
18858;BME280;9558;50.178;8.370;2023-04-05T08:52:24;98764.09;;;21.07;25.63
18858;BME280;9558;50.178;8.370;2023-04-05T08:55:11;98767.63;;;21.01;26.32
18858;BME280;9558;50.178;8.370;2023-04-05T08:57:59;98754.78;;;20.69;25.08
18858;BME280;9558;50.178;8.370;2023-04-05T09:00:49;98757.50;;;20.32;26.26
18858;BME280;9558;50.178;8.370;2023-04-05T09:03:39;98752.66;;;19.49;26.05
18858;BME280;9558;50.178;8.370;2023-04-05T09:06:28;98747.19;;;18.89;27.88
18858;BME280;9558;50.178;8.370;2023-04-05T09:09:15;98743.19;;;18.22;27.91
18858;BME280;9558;50.178;8.370;2023-04-05T09:12:02;98742.66;;;17.48;28.84
18858;BME280;9558;50.178;8.370;2023-04-05T09:14:52;98748.56;;;16.70;29.64
18858;BME280;9558;50.178;8.370;2023-04-05T09:17:40;98749.56;;;15.87;30.40
18858;BME280;9558;50.178;8.370;2023-04-05T09:20:29;98736.34;;;14.90;31.09
18858;BME280;9558;50.178;8.370;2023-04-05T09:23:16;98732.63;;;14.34;32.21
18858;BME280;9558;50.178;8.370;2023-04-05T09:26:16;98731.91;;;13.68;33.18
18858;BME280;9558;50.178;8.370;2023-04-05T09:29:03;98723.47;;;13.21;33.60
18858;BME280;9558;50.178;8.370;2023-04-05T09:31:50;98726.41;;;12.65;34.34
18858;BME280;9558;50.178;8.370;2023-04-05T09:34:38;98735.41;;;12.31;35.62
18858;BME280;9558;50.178;8.370;2023-04-05T09:37:26;98732.34;;;11.96;36.06
18858;BME280;9558;50.178;8.370;2023-04-05T09:40:13;98736.66;;;11.72;36.88
18858;BME280;9558;50.178;8.370;2023-04-05T09:43:00;98735.94;;;11.38;37.16
18858;BME280;9558;50.178;8.370;2023-04-05T09:45:47;98725.78;;;11.12;37.55
18858;BME280;9558;50.178;8.370;2023-04-05T09:48:47;98729.72;;;10.75;38.11
18858;BME280;9558;50.178;8.370;2023-04-05T09:51:35;98722.25;;;10.39;38.72
18858;BME280;9558;50.178;8.370;2023-04-05T09:54:23;98723.34;;;10.28;39.95
18858;BME280;9558;50.178;8.370;2023-04-05T09:57:10;98725.25;;;10.10;39.16
18858;BME280;9558;50.178;8.370;2023-04-05T09:59:57;98719.25;;;10.01;39.27
18858;BME280;9558;50.178;8.370;2023-04-05T10:02:44;98715.97;;;9.91;39.46
18858;BME280;9558;50.178;8.370;2023-04-05T10:05:32;98723.38;;;9.85;39.79
18858;BME280;9558;50.178;8.370;2023-04-05T10:08:19;98718.22;;;9.85;40.66
18858;BME280;9558;50.178;8.370;2023-04-05T10:11:07;98713.88;;;9.86;40.58
18858;BME280;9558;50.178;8.370;2023-04-05T10:13:56;98707.72;;;9.79;40.80
18858;BME280;9558;50.178;8.370;2023-04-05T10:16:47;98709.75;;;9.67;40.14
18858;BME280;9558;50.178;8.370;2023-04-05T10:19:43;98719.25;;;9.58;40.62
18858;BME280;9558;50.178;8.370;2023-04-05T10:22:40;98714.41;;;9.55;41.01
18858;BME280;9558;50.178;8.370;2023-04-05T10:25:47;98707.88;;;9.43;41.13
18858;BME280;9558;50.178;8.370;2023-04-05T10:28:41;98690.25;;;9.38;41.90
18858;BME280;9558;50.178;8.370;2023-04-05T10:31:36;98704.34;;;9.44;42.00
18858;BME280;9558;50.178;8.370;2023-04-05T10:34:30;98694.63;;;9.46;41.78
18858;BME280;9558;50.178;8.370;2023-04-05T10:37:26;98693.69;;;9.47;41.17
18858;BME280;9558;50.178;8.370;2023-04-05T10:40:17;98684.94;;;9.40;42.03
18858;BME280;9558;50.178;8.370;2023-04-05T10:43:09;98698.16;;;9.37;42.36
18858;BME280;9558;50.178;8.370;2023-04-05T10:46:03;98696.59;;;9.44;41.71
18858;BME280;9558;50.178;8.370;2023-04-05T10:48:56;98692.53;;;9.41;42.52
18858;BME280;9558;50.178;8.370;2023-04-05T10:51:45;98695.13;;;9.41;41.53
18858;BME280;9558;50.178;8.370;2023-04-05T10:54:33;98699.47;;;9.41;42.41
18858;BME280;9558;50.178;8.370;2023-04-05T10:57:21;98696.75;;;9.42;41.51
18858;BME280;9558;50.178;8.370;2023-04-05T11:00:11;98691.19;;;9.29;41.79
18858;BME280;9558;50.178;8.370;2023-04-05T11:03:00;98686.81;;;9.29;41.96
18858;BME280;9558;50.178;8.370;2023-04-05T11:05:46;98687.31;;;9.33;42.32
18858;BME280;9558;50.178;8.370;2023-04-05T11:08:33;98682.97;;;9.33;42.71
18858;BME280;9558;50.178;8.370;2023-04-05T11:11:22;98677.03;;;9.41;42.64
18858;BME280;9558;50.178;8.370;2023-04-05T11:14:23;98674.81;;;9.46;42.13
18858;BME280;9558;50.178;8.370;2023-04-05T11:17:23;98679.00;;;9.47;41.83
18858;BME280;9558;50.178;8.370;2023-04-05T11:20:12;98670.94;;;9.59;41.60
18858;BME280;9558;50.178;8.370;2023-04-05T11:22:59;98677.38;;;9.46;41.18
18858;BME280;9558;50.178;8.370;2023-04-05T11:25:48;98671.09;;;9.49;40.62
18858;BME280;9558;50.178;8.370;2023-04-05T11:28:36;98662.38;;;9.50;41.56
18858;BME280;9558;50.178;8.370;2023-04-05T11:31:24;98660.78;;;9.57;42.16
18858;BME280;9558;50.178;8.370;2023-04-05T11:34:11;98655.63;;;9.65;42.33
18858;BME280;9558;50.178;8.370;2023-04-05T11:36:59;98649.38;;;9.76;42.13
18858;BME280;9558;50.178;8.370;2023-04-05T11:39:46;98663.91;;;9.77;40.78
18858;BME280;9558;50.178;8.370;2023-04-05T11:42:33;98654.88;;;9.81;41.21
18858;BME280;9558;50.178;8.370;2023-04-05T11:45:22;98653.28;;;9.80;41.23
18858;BME280;9558;50.178;8.370;2023-04-05T11:48:10;98653.13;;;9.82;41.83
18858;BME280;9558;50.178;8.370;2023-04-05T11:50:57;98642.25;;;9.70;40.29
18858;BME280;9558;50.178;8.370;2023-04-05T11:53:46;98645.31;;;9.65;40.05
18858;BME280;9558;50.178;8.370;2023-04-05T11:56:33;98642.56;;;9.67;40.63
18858;BME280;9558;50.178;8.370;2023-04-05T11:59:27;98637.72;;;9.64;40.07
18858;BME280;9558;50.178;8.370;2023-04-05T12:02:14;98639.47;;;9.55;40.28
18858;BME280;9558;50.178;8.370;2023-04-05T12:05:01;98645.44;;;9.56;40.35
18858;BME280;9558;50.178;8.370;2023-04-05T12:07:51;98630.53;;;9.41;39.47
18858;BME280;9558;50.178;8.370;2023-04-05T12:10:39;98631.50;;;9.40;40.30
18858;BME280;9558;50.178;8.370;2023-04-05T12:13:27;98620.50;;;9.38;40.13
18858;BME280;9558;50.178;8.370;2023-04-05T12:16:14;98633.78;;;9.43;40.16
18858;BME280;9558;50.178;8.370;2023-04-05T12:19:01;98623.78;;;9.48;40.35
18858;BME280;9558;50.178;8.370;2023-04-05T12:21:48;98615.88;;;9.50;40.13
18858;BME280;9558;50.178;8.370;2023-04-05T12:24:35;98619.44;;;9.49;40.43
18858;BME280;9558;50.178;8.370;2023-04-05T12:27:24;98621.69;;;9.52;40.60
18858;BME280;9558;50.178;8.370;2023-04-05T12:30:13;98609.25;;;9.56;40.56
18858;BME280;9558;50.178;8.370;2023-04-05T12:33:05;98605.41;;;9.60;41.13
18858;BME280;9558;50.178;8.370;2023-04-05T12:35:53;98609.16;;;9.74;41.80
18858;BME280;9558;50.178;8.370;2023-04-05T12:38:40;98601.88;;;9.77;40.13
18858;BME280;9558;50.178;8.370;2023-04-05T12:41:27;98613.03;;;9.78;40.06
18858;BME280;9558;50.178;8.370;2023-04-05T12:44:16;98604.16;;;9.80;40.69
18858;BME280;9558;50.178;8.370;2023-04-05T12:47:13;98599.81;;;9.89;41.12
18858;BME280;9558;50.178;8.370;2023-04-05T12:50:12;98597.38;;;9.88;40.18
18858;BME280;9558;50.178;8.370;2023-04-05T12:53:00;98597.38;;;9.88;40.14
18858;BME280;9558;50.178;8.370;2023-04-05T12:55:51;98595.94;;;9.93;40.62
18858;BME280;9558;50.178;8.370;2023-04-05T12:58:38;98585.09;;;9.98;40.10
18858;BME280;9558;50.178;8.370;2023-04-05T13:01:27;98582.22;;;10.09;40.78
18858;BME280;9558;50.178;8.370;2023-04-05T13:04:15;98586.72;;;10.24;41.01
18858;BME280;9558;50.178;8.370;2023-04-05T13:07:02;98583.66;;;10.28;40.63
18858;BME280;9558;50.178;8.370;2023-04-05T13:09:49;98579.97;;;10.39;40.94
18858;BME280;9558;50.178;8.370;2023-04-05T13:12:35;98572.16;;;10.55;41.31
18858;BME280;9558;50.178;8.370;2023-04-05T13:15:22;98565.00;;;10.66;39.24
18858;BME280;9558;50.178;8.370;2023-04-05T13:18:10;98573.19;;;10.86;38.79
18858;BME280;9558;50.178;8.370;2023-04-05T13:20:59;98564.97;;;10.91;38.87
18858;BME280;9558;50.178;8.370;2023-04-05T13:23:52;98565.59;;;10.93;38.77
18858;BME280;9558;50.178;8.370;2023-04-05T13:26:38;98567.22;;;10.94;37.55
18858;BME280;9558;50.178;8.370;2023-04-05T13:29:25;98566.50;;;11.08;39.47
18858;BME280;9558;50.178;8.370;2023-04-05T13:32:12;98562.56;;;11.20;39.62
18858;BME280;9558;50.178;8.370;2023-04-05T13:35:01;98564.50;;;11.18;37.72
18858;BME280;9558;50.178;8.370;2023-04-05T13:37:48;98560.16;;;11.19;38.52
18858;BME280;9558;50.178;8.370;2023-04-05T13:40:35;98563.78;;;11.01;38.00
18858;BME280;9558;50.178;8.370;2023-04-05T13:43:22;98562.97;;;11.01;38.37
18858;BME280;9558;50.178;8.370;2023-04-05T13:46:09;98556.69;;;10.95;38.44
18858;BME280;9558;50.178;8.370;2023-04-05T13:48:55;98553.00;;;10.81;38.04
18858;BME280;9558;50.178;8.370;2023-04-05T13:51:44;98551.41;;;10.80;38.76
18858;BME280;9558;50.178;8.370;2023-04-05T13:54:30;98556.63;;;10.64;38.55
18858;BME280;9558;50.178;8.370;2023-04-05T13:57:17;98549.19;;;10.52;38.32
18858;BME280;9558;50.178;8.370;2023-04-05T14:00:05;98543.06;;;10.45;38.76
18858;BME280;9558;50.178;8.370;2023-04-05T14:02:52;98543.06;;;10.29;38.50
18858;BME280;9558;50.178;8.370;2023-04-05T14:05:39;98548.72;;;10.16;38.06
18858;BME280;9558;50.178;8.370;2023-04-05T14:08:27;98537.41;;;10.09;39.72
18858;BME280;9558;50.178;8.370;2023-04-05T14:11:14;98541.78;;;10.00;39.46
18858;BME280;9558;50.178;8.370;2023-04-05T14:14:01;98535.34;;;9.88;39.00
18858;BME280;9558;50.178;8.370;2023-04-05T14:16:47;98534.38;;;9.80;39.68
18858;BME280;9558;50.178;8.370;2023-04-05T14:19:35;98546.31;;;9.73;39.39
18858;BME280;9558;50.178;8.370;2023-04-05T14:22:22;98535.00;;;9.58;38.73
18858;BME280;9558;50.178;8.370;2023-04-05T14:25:10;98529.31;;;9.46;39.88
18858;BME280;9558;50.178;8.370;2023-04-05T14:27:57;98521.06;;;9.42;40.14
18858;BME280;9558;50.178;8.370;2023-04-05T14:30:44;98521.06;;;9.34;40.08
18858;BME280;9558;50.178;8.370;2023-04-05T14:33:30;98518.00;;;9.30;40.53
18858;BME280;9558;50.178;8.370;2023-04-05T14:36:17;98498.44;;;9.28;41.18
18858;BME280;9558;50.178;8.370;2023-04-05T14:39:04;98507.00;;;9.28;41.28
18858;BME280;9558;50.178;8.370;2023-04-05T14:41:52;98505.84;;;9.23;40.99
18858;BME280;9558;50.178;8.370;2023-04-05T14:44:40;98497.78;;;9.18;41.39
18858;BME280;9558;50.178;8.370;2023-04-05T14:47:27;98498.09;;;9.14;41.25
18858;BME280;9558;50.178;8.370;2023-04-05T14:50:14;98495.97;;;9.10;40.51
18858;BME280;9558;50.178;8.370;2023-04-05T14:53:01;98500.97;;;9.03;40.36
18858;BME280;9558;50.178;8.370;2023-04-05T14:55:48;98504.53;;;9.02;41.42
18858;BME280;9558;50.178;8.370;2023-04-05T14:58:36;98495.81;;;9.03;41.38
18858;BME280;9558;50.178;8.370;2023-04-05T15:01:23;98495.81;;;9.03;41.50
18858;BME280;9558;50.178;8.370;2023-04-05T15:04:10;98493.53;;;9.00;41.78
18858;BME280;9558;50.178;8.370;2023-04-05T15:06:57;98490.16;;;8.99;41.93